sensor_id;sensor_type;location;lat;lon;timestamp;P1;durP1;ratioP1;P2;durP2;ratioP2
65879;SDS011;52661;51.364;6.054;2023-09-18T00:01:30;9.03;;;3.87;;
65879;SDS011;52661;51.364;6.054;2023-09-18T00:03:56;10.95;;;4.70;;
65879;SDS011;52661;51.364;6.054;2023-09-18T00:06:22;7.63;;;4.63;;
65879;SDS011;52661;51.364;6.054;2023-09-18T00:08:50;9.13;;;4.70;;
65879;SDS011;52661;51.364;6.054;2023-09-18T00:11:16;9.70;;;3.75;;
65879;SDS011;52661;51.364;6.054;2023-09-18T00:13:41;8.13;;;3.67;;
65879;SDS011;52661;51.364;6.054;2023-09-18T00:16:06;7.00;;;3.88;;
65879;SDS011;52661;51.364;6.054;2023-09-18T00:18:32;7.05;;;3.42;;
65879;SDS011;52661;51.364;6.054;2023-09-18T00:20:57;8.38;;;3.83;;
65879;SDS011;52661;51.364;6.054;2023-09-18T00:23:23;7.28;;;3.15;;
65879;SDS011;52661;51.364;6.054;2023-09-18T00:25:48;9.10;;;3.93;;
65879;SDS011;52661;51.364;6.054;2023-09-18T00:28:14;7.97;;;3.50;;
65879;SDS011;52661;51.364;6.054;2023-09-18T00:30:42;7.47;;;3.50;;
65879;SDS011;52661;51.364;6.054;2023-09-18T00:33:11;6.72;;;3.10;;
65879;SDS011;52661;51.364;6.054;2023-09-18T00:35:36;7.25;;;3.15;;
65879;SDS011;52661;51.364;6.054;2023-09-18T00:38:02;6.85;;;3.63;;
65879;SDS011;52661;51.364;6.054;2023-09-18T00:40:29;9.77;;;3.72;;
65879;SDS011;52661;51.364;6.054;2023-09-18T00:42:54;6.70;;;3.33;;
65879;SDS011;52661;51.364;6.054;2023-09-18T00:45:20;7.35;;;3.65;;
65879;SDS011;52661;51.364;6.054;2023-09-18T00:47:45;9.27;;;3.28;;
65879;SDS011;52661;51.364;6.054;2023-09-18T00:50:11;9.23;;;3.20;;
65879;SDS011;52661;51.364;6.054;2023-09-18T00:52:39;5.90;;;3.10;;
65879;SDS011;52661;51.364;6.054;2023-09-18T00:55:06;8.48;;;4.20;;
65879;SDS011;52661;51.364;6.054;2023-09-18T00:57:32;7.97;;;3.03;;
65879;SDS011;52661;51.364;6.054;2023-09-18T00:59:58;8.13;;;3.30;;
65879;SDS011;52661;51.364;6.054;2023-09-18T01:02:23;7.47;;;3.30;;
65879;SDS011;52661;51.364;6.054;2023-09-18T01:04:49;8.25;;;3.53;;
65879;SDS011;52661;51.364;6.054;2023-09-18T01:07:15;6.88;;;3.00;;
65879;SDS011;52661;51.364;6.054;2023-09-18T01:09:40;11.25;;;3.55;;
65879;SDS011;52661;51.364;6.054;2023-09-18T01:12:17;7.53;;;3.53;;
65879;SDS011;52661;51.364;6.054;2023-09-18T01:14:55;7.85;;;3.28;;
65879;SDS011;52661;51.364;6.054;2023-09-18T01:17:28;7.10;;;2.75;;
65879;SDS011;52661;51.364;6.054;2023-09-18T01:19:55;7.07;;;3.53;;
65879;SDS011;52661;51.364;6.054;2023-09-18T01:22:21;7.75;;;2.83;;
65879;SDS011;52661;51.364;6.054;2023-09-18T01:24:47;7.32;;;2.75;;
65879;SDS011;52661;51.364;6.054;2023-09-18T01:27:14;8.13;;;2.70;;
65879;SDS011;52661;51.364;6.054;2023-09-18T01:29:44;6.32;;;2.72;;
65879;SDS011;52661;51.364;6.054;2023-09-18T01:32:10;5.30;;;2.58;;
65879;SDS011;52661;51.364;6.054;2023-09-18T01:34:48;6.78;;;2.95;;
65879;SDS011;52661;51.364;6.054;2023-09-18T01:37:17;6.30;;;3.03;;
65879;SDS011;52661;51.364;6.054;2023-09-18T01:39:48;6.85;;;2.65;;
65879;SDS011;52661;51.364;6.054;2023-09-18T01:42:16;7.15;;;3.00;;
65879;SDS011;52661;51.364;6.054;2023-09-18T01:44:41;7.80;;;3.13;;
65879;SDS011;52661;51.364;6.054;2023-09-18T01:47:09;6.47;;;2.45;;
65879;SDS011;52661;51.364;6.054;2023-09-18T01:49:38;8.18;;;3.13;;
65879;SDS011;52661;51.364;6.054;2023-09-18T01:52:06;6.93;;;3.25;;
65879;SDS011;52661;51.364;6.054;2023-09-18T01:54:32;8.98;;;3.92;;
65879;SDS011;52661;51.364;6.054;2023-09-18T01:56:58;5.68;;;2.47;;
65879;SDS011;52661;51.364;6.054;2023-09-18T01:59:24;8.60;;;3.47;;
65879;SDS011;52661;51.364;6.054;2023-09-18T02:01:50;6.15;;;3.03;;
65879;SDS011;52661;51.364;6.054;2023-09-18T02:04:16;7.00;;;2.72;;
65879;SDS011;52661;51.364;6.054;2023-09-18T02:06:42;8.02;;;2.97;;
65879;SDS011;52661;51.364;6.054;2023-09-18T02:09:08;6.10;;;2.60;;
65879;SDS011;52661;51.364;6.054;2023-09-18T02:11:37;8.90;;;2.78;;
65879;SDS011;52661;51.364;6.054;2023-09-18T02:14:04;9.02;;;2.88;;
65879;SDS011;52661;51.364;6.054;2023-09-18T02:16:30;8.48;;;3.30;;
65879;SDS011;52661;51.364;6.054;2023-09-18T02:18:57;11.77;;;3.47;;
65879;SDS011;52661;51.364;6.054;2023-09-18T02:21:22;9.35;;;3.08;;
65879;SDS011;52661;51.364;6.054;2023-09-18T02:23:52;6.50;;;2.53;;
65879;SDS011;52661;51.364;6.054;2023-09-18T02:26:18;6.97;;;2.60;;
65879;SDS011;52661;51.364;6.054;2023-09-18T02:28:47;6.72;;;2.65;;
65879;SDS011;52661;51.364;6.054;2023-09-18T02:31:13;6.88;;;2.60;;
65879;SDS011;52661;51.364;6.054;2023-09-18T02:33:39;10.15;;;2.78;;
65879;SDS011;52661;51.364;6.054;2023-09-18T02:36:04;10.00;;;2.78;;
65879;SDS011;52661;51.364;6.054;2023-09-18T02:38:30;5.57;;;2.33;;
65879;SDS011;52661;51.364;6.054;2023-09-18T02:40:56;4.85;;;2.45;;
65879;SDS011;52661;51.364;6.054;2023-09-18T02:43:22;5.00;;;2.17;;
65879;SDS011;52661;51.364;6.054;2023-09-18T02:45:48;7.07;;;2.50;;
65879;SDS011;52661;51.364;6.054;2023-09-18T02:48:13;7.40;;;2.90;;
65879;SDS011;52661;51.364;6.054;2023-09-18T02:50:39;5.97;;;2.42;;
65879;SDS011;52661;51.364;6.054;2023-09-18T02:53:05;8.07;;;2.75;;
65879;SDS011;52661;51.364;6.054;2023-09-18T02:55:31;7.13;;;2.67;;
65879;SDS011;52661;51.364;6.054;2023-09-18T02:57:57;6.93;;;3.33;;
65879;SDS011;52661;51.364;6.054;2023-09-18T03:00:22;7.45;;;3.30;;
65879;SDS011;52661;51.364;6.054;2023-09-18T03:02:48;7.57;;;3.05;;
65879;SDS011;52661;51.364;6.054;2023-09-18T03:05:13;6.90;;;2.63;;
65879;SDS011;52661;51.364;6.054;2023-09-18T03:07:38;6.15;;;2.05;;
65879;SDS011;52661;51.364;6.054;2023-09-18T03:10:04;9.25;;;2.53;;
65879;SDS011;52661;51.364;6.054;2023-09-18T03:12:30;9.10;;;2.70;;
65879;SDS011;52661;51.364;6.054;2023-09-18T03:14:56;10.00;;;2.65;;
65879;SDS011;52661;51.364;6.054;2023-09-18T03:17:22;6.97;;;2.10;;
65879;SDS011;52661;51.364;6.054;2023-09-18T03:19:47;5.82;;;3.38;;
65879;SDS011;52661;51.364;6.054;2023-09-18T03:22:14;9.13;;;2.40;;
65879;SDS011;52661;51.364;6.054;2023-09-18T03:24:39;7.78;;;2.28;;
65879;SDS011;52661;51.364;6.054;2023-09-18T03:27:04;7.80;;;2.20;;
65879;SDS011;52661;51.364;6.054;2023-09-18T03:29:30;7.72;;;3.72;;
65879;SDS011;52661;51.364;6.054;2023-09-18T03:31:55;7.03;;;2.60;;
65879;SDS011;52661;51.364;6.054;2023-09-18T03:34:23;5.93;;;2.38;;
65879;SDS011;52661;51.364;6.054;2023-09-18T03:36:51;6.80;;;2.22;;
65879;SDS011;52661;51.364;6.054;2023-09-18T03:39:16;6.45;;;2.45;;
65879;SDS011;52661;51.364;6.054;2023-09-18T03:41:42;5.50;;;2.78;;
65879;SDS011;52661;51.364;6.054;2023-09-18T03:44:07;7.43;;;1.90;;
65879;SDS011;52661;51.364;6.054;2023-09-18T03:46:32;10.65;;;2.05;;
65879;SDS011;52661;51.364;6.054;2023-09-18T03:48:58;8.93;;;2.10;;
65879;SDS011;52661;51.364;6.054;2023-09-18T03:51:23;5.15;;;1.90;;
65879;SDS011;52661;51.364;6.054;2023-09-18T03:53:48;5.00;;;1.93;;
65879;SDS011;52661;51.364;6.054;2023-09-18T03:56:14;6.80;;;1.73;;
65879;SDS011;52661;51.364;6.054;2023-09-18T03:58:40;7.80;;;3.30;;
65879;SDS011;52661;51.364;6.054;2023-09-18T04:01:05;7.63;;;2.40;;
65879;SDS011;52661;51.364;6.054;2023-09-18T04:03:31;7.63;;;2.37;;
65879;SDS011;52661;51.364;6.054;2023-09-18T04:05:56;7.90;;;2.50;;
65879;SDS011;52661;51.364;6.054;2023-09-18T04:08:21;10.33;;;2.30;;
65879;SDS011;52661;51.364;6.054;2023-09-18T04:10:47;7.30;;;2.20;;
65879;SDS011;52661;51.364;6.054;2023-09-18T04:13:13;6.70;;;1.83;;
65879;SDS011;52661;51.364;6.054;2023-09-18T04:15:38;6.45;;;3.05;;
65879;SDS011;52661;51.364;6.054;2023-09-18T04:18:04;10.65;;;2.60;;
65879;SDS011;52661;51.364;6.054;2023-09-18T04:20:30;6.35;;;2.08;;
65879;SDS011;52661;51.364;6.054;2023-09-18T04:25:45;7.57;;;2.15;;
65879;SDS011;52661;51.364;6.054;2023-09-18T04:28:17;6.15;;;1.98;;
65879;SDS011;52661;51.364;6.054;2023-09-18T04:30:44;4.95;;;2.17;;
65879;SDS011;52661;51.364;6.054;2023-09-18T04:33:09;4.88;;;2.00;;
65879;SDS011;52661;51.364;6.054;2023-09-18T04:35:36;7.07;;;1.92;;
65879;SDS011;52661;51.364;6.054;2023-09-18T04:38:05;8.52;;;2.10;;
65879;SDS011;52661;51.364;6.054;2023-09-18T04:40:33;7.80;;;2.20;;
65879;SDS011;52661;51.364;6.054;2023-09-18T04:42:58;5.18;;;2.00;;
65879;SDS011;52661;51.364;6.054;2023-09-18T04:45:24;5.37;;;2.23;;
65879;SDS011;52661;51.364;6.054;2023-09-18T04:47:50;7.57;;;2.30;;
65879;SDS011;52661;51.364;6.054;2023-09-18T04:50:16;6.13;;;2.15;;
65879;SDS011;52661;51.364;6.054;2023-09-18T04:52:42;10.18;;;2.80;;
65879;SDS011;52661;51.364;6.054;2023-09-18T04:55:07;8.98;;;2.20;;
65879;SDS011;52661;51.364;6.054;2023-09-18T04:57:33;7.50;;;2.10;;
65879;SDS011;52661;51.364;6.054;2023-09-18T04:59:59;6.78;;;2.15;;
65879;SDS011;52661;51.364;6.054;2023-09-18T05:02:24;7.07;;;2.42;;
65879;SDS011;52661;51.364;6.054;2023-09-18T05:04:50;7.68;;;2.08;;
65879;SDS011;52661;51.364;6.054;2023-09-18T05:07:16;11.98;;;2.80;;
65879;SDS011;52661;51.364;6.054;2023-09-18T05:09:42;10.35;;;2.08;;
65879;SDS011;52661;51.364;6.054;2023-09-18T05:12:08;7.95;;;2.63;;
65879;SDS011;52661;51.364;6.054;2023-09-18T05:14:39;5.95;;;2.50;;
65879;SDS011;52661;51.364;6.054;2023-09-18T05:17:05;6.40;;;1.95;;
65879;SDS011;52661;51.364;6.054;2023-09-18T05:19:30;7.82;;;1.90;;
65879;SDS011;52661;51.364;6.054;2023-09-18T05:21:55;8.57;;;2.10;;
65879;SDS011;52661;51.364;6.054;2023-09-18T05:24:21;8.85;;;1.98;;
65879;SDS011;52661;51.364;6.054;2023-09-18T05:26:52;11.23;;;2.83;;
65879;SDS011;52661;51.364;6.054;2023-09-18T05:29:17;8.30;;;3.08;;
65879;SDS011;52661;51.364;6.054;2023-09-18T05:31:43;7.47;;;1.73;;
65879;SDS011;52661;51.364;6.054;2023-09-18T05:34:08;6.38;;;1.55;;
65879;SDS011;52661;51.364;6.054;2023-09-18T05:36:34;9.13;;;2.08;;
65879;SDS011;52661;51.364;6.054;2023-09-18T05:39:00;4.15;;;1.73;;
65879;SDS011;52661;51.364;6.054;2023-09-18T05:41:25;6.45;;;1.50;;
65879;SDS011;52661;51.364;6.054;2023-09-18T05:43:53;6.68;;;2.05;;
65879;SDS011;52661;51.364;6.054;2023-09-18T05:46:19;6.38;;;1.65;;
65879;SDS011;52661;51.364;6.054;2023-09-18T05:48:44;4.50;;;1.08;;
65879;SDS011;52661;51.364;6.054;2023-09-18T05:51:10;7.70;;;1.37;;
65879;SDS011;52661;51.364;6.054;2023-09-18T05:53:35;9.40;;;1.30;;
65879;SDS011;52661;51.364;6.054;2023-09-18T05:56:03;5.80;;;2.30;;
65879;SDS011;52661;51.364;6.054;2023-09-18T05:58:29;4.28;;;1.33;;
65879;SDS011;52661;51.364;6.054;2023-09-18T06:01:00;6.60;;;1.00;;
65879;SDS011;52661;51.364;6.054;2023-09-18T06:03:26;6.18;;;1.30;;
65879;SDS011;52661;51.364;6.054;2023-09-18T06:05:52;7.00;;;1.02;;
65879;SDS011;52661;51.364;6.054;2023-09-18T06:08:17;3.22;;;1.50;;
65879;SDS011;52661;51.364;6.054;2023-09-18T06:10:44;2.17;;;0.90;;
65879;SDS011;52661;51.364;6.054;2023-09-18T06:13:10;6.72;;;1.08;;
65879;SDS011;52661;51.364;6.054;2023-09-18T06:15:36;2.75;;;0.60;;
65879;SDS011;52661;51.364;6.054;2023-09-18T06:18:01;4.22;;;0.70;;
65879;SDS011;52661;51.364;6.054;2023-09-18T06:20:28;4.82;;;0.73;;
65879;SDS011;52661;51.364;6.054;2023-09-18T06:22:54;3.70;;;0.70;;
65879;SDS011;52661;51.364;6.054;2023-09-18T06:25:19;4.00;;;0.88;;
65879;SDS011;52661;51.364;6.054;2023-09-18T06:27:45;2.70;;;0.63;;
65879;SDS011;52661;51.364;6.054;2023-09-18T06:30:11;3.67;;;0.93;;
65879;SDS011;52661;51.364;6.054;2023-09-18T06:32:36;6.93;;;1.98;;
65879;SDS011;52661;51.364;6.054;2023-09-18T06:35:02;2.92;;;0.52;;
65879;SDS011;52661;51.364;6.054;2023-09-18T06:37:27;2.60;;;0.50;;
65879;SDS011;52661;51.364;6.054;2023-09-18T06:39:53;3.17;;;0.75;;
65879;SDS011;52661;51.364;6.054;2023-09-18T06:42:18;3.15;;;0.60;;
65879;SDS011;52661;51.364;6.054;2023-09-18T06:44:44;3.75;;;0.73;;
65879;SDS011;52661;51.364;6.054;2023-09-18T06:47:10;3.72;;;0.75;;
65879;SDS011;52661;51.364;6.054;2023-09-18T06:49:36;2.63;;;1.15;;
65879;SDS011;52661;51.364;6.054;2023-09-18T06:52:01;1.80;;;0.68;;
65879;SDS011;52661;51.364;6.054;2023-09-18T06:54:27;2.53;;;0.47;;
65879;SDS011;52661;51.364;6.054;2023-09-18T06:56:52;4.93;;;0.40;;
65879;SDS011;52661;51.364;6.054;2023-09-18T06:59:17;1.30;;;0.27;;
65879;SDS011;52661;51.364;6.054;2023-09-18T07:01:43;3.55;;;0.43;;
65879;SDS011;52661;51.364;6.054;2023-09-18T07:04:08;2.53;;;0.30;;
65879;SDS011;52661;51.364;6.054;2023-09-18T07:06:34;3.08;;;0.45;;
65879;SDS011;52661;51.364;6.054;2023-09-18T07:08:59;3.05;;;0.88;;
65879;SDS011;52661;51.364;6.054;2023-09-18T07:11:24;5.78;;;2.05;;
65879;SDS011;52661;51.364;6.054;2023-09-18T07:13:50;1.70;;;0.38;;
65879;SDS011;52661;51.364;6.054;2023-09-18T07:16:15;2.58;;;0.40;;
65879;SDS011;52661;51.364;6.054;2023-09-18T07:18:41;1.80;;;0.30;;
65879;SDS011;52661;51.364;6.054;2023-09-18T07:21:06;3.40;;;0.40;;
65879;SDS011;52661;51.364;6.054;2023-09-18T07:23:32;2.67;;;0.55;;
65879;SDS011;52661;51.364;6.054;2023-09-18T07:26:00;2.92;;;0.30;;
65879;SDS011;52661;51.364;6.054;2023-09-18T07:28:26;2.03;;;0.50;;
65879;SDS011;52661;51.364;6.054;2023-09-18T07:30:51;4.15;;;0.68;;
65879;SDS011;52661;51.364;6.054;2023-09-18T07:33:17;3.30;;;0.50;;
65879;SDS011;52661;51.364;6.054;2023-09-18T07:35:45;2.95;;;1.25;;
65879;SDS011;52661;51.364;6.054;2023-09-18T07:38:12;2.30;;;0.68;;
65879;SDS011;52661;51.364;6.054;2023-09-18T07:40:37;3.47;;;0.38;;
65879;SDS011;52661;51.364;6.054;2023-09-18T07:43:03;2.08;;;0.45;;
65879;SDS011;52661;51.364;6.054;2023-09-18T07:45:28;3.38;;;0.70;;
65879;SDS011;52661;51.364;6.054;2023-09-18T07:47:54;1.50;;;0.65;;
65879;SDS011;52661;51.364;6.054;2023-09-18T07:50:19;6.20;;;0.60;;
65879;SDS011;52661;51.364;6.054;2023-09-18T07:52:44;2.65;;;0.50;;
65879;SDS011;52661;51.364;6.054;2023-09-18T07:55:10;2.33;;;0.35;;
65879;SDS011;52661;51.364;6.054;2023-09-18T07:57:35;3.47;;;0.38;;
65879;SDS011;52661;51.364;6.054;2023-09-18T08:00:02;2.85;;;0.43;;
65879;SDS011;52661;51.364;6.054;2023-09-18T08:02:32;2.47;;;0.45;;
65879;SDS011;52661;51.364;6.054;2023-09-18T08:04:59;2.22;;;0.43;;
65879;SDS011;52661;51.364;6.054;2023-09-18T08:07:25;2.63;;;0.50;;
65879;SDS011;52661;51.364;6.054;2023-09-18T08:09:51;1.88;;;0.40;;
65879;SDS011;52661;51.364;6.054;2023-09-18T08:12:16;2.15;;;0.55;;
65879;SDS011;52661;51.364;6.054;2023-09-18T08:14:41;2.60;;;0.40;;
65879;SDS011;52661;51.364;6.054;2023-09-18T08:17:07;1.92;;;0.35;;
65879;SDS011;52661;51.364;6.054;2023-09-18T08:19:32;1.95;;;0.20;;
65879;SDS011;52661;51.364;6.054;2023-09-18T08:21:58;2.13;;;0.20;;
65879;SDS011;52661;51.364;6.054;2023-09-18T08:24:26;3.03;;;0.50;;
65879;SDS011;52661;51.364;6.054;2023-09-18T08:26:52;5.47;;;0.47;;
65879;SDS011;52661;51.364;6.054;2023-09-18T08:29:17;1.98;;;0.30;;
65879;SDS011;52661;51.364;6.054;2023-09-18T08:31:43;5.38;;;0.30;;
65879;SDS011;52661;51.364;6.054;2023-09-18T08:34:08;1.45;;;0.30;;
65879;SDS011;52661;51.364;6.054;2023-09-18T08:36:34;2.58;;;0.40;;
65879;SDS011;52661;51.364;6.054;2023-09-18T08:39:00;2.28;;;1.33;;
65879;SDS011;52661;51.364;6.054;2023-09-18T08:41:26;1.80;;;0.38;;
65879;SDS011;52661;51.364;6.054;2023-09-18T08:43:56;2.63;;;0.50;;
65879;SDS011;52661;51.364;6.054;2023-09-18T08:46:25;3.15;;;0.57;;
65879;SDS011;52661;51.364;6.054;2023-09-18T08:48:51;2.70;;;0.52;;
65879;SDS011;52661;51.364;6.054;2023-09-18T08:53:44;3.13;;;0.30;;
65879;SDS011;52661;51.364;6.054;2023-09-18T08:56:11;4.22;;;0.55;;
65879;SDS011;52661;51.364;6.054;2023-09-18T08:58:39;3.88;;;0.55;;
65879;SDS011;52661;51.364;6.054;2023-09-18T09:01:07;1.52;;;0.20;;
65879;SDS011;52661;51.364;6.054;2023-09-18T09:06:12;2.20;;;0.63;;
65879;SDS011;52661;51.364;6.054;2023-09-18T09:08:38;1.73;;;0.47;;
65879;SDS011;52661;51.364;6.054;2023-09-18T09:11:04;3.15;;;0.30;;
65879;SDS011;52661;51.364;6.054;2023-09-18T09:13:30;2.38;;;0.32;;
65879;SDS011;52661;51.364;6.054;2023-09-18T09:15:59;2.17;;;0.50;;
65879;SDS011;52661;51.364;6.054;2023-09-18T09:18:29;2.80;;;0.50;;
65879;SDS011;52661;51.364;6.054;2023-09-18T09:21:02;3.60;;;0.43;;
65879;SDS011;52661;51.364;6.054;2023-09-18T09:23:44;3.10;;;0.40;;
65879;SDS011;52661;51.364;6.054;2023-09-18T09:26:15;4.03;;;0.50;;
65879;SDS011;52661;51.364;6.054;2023-09-18T09:28:42;1.38;;;0.43;;
65879;SDS011;52661;51.364;6.054;2023-09-18T09:31:09;7.25;;;0.70;;
65879;SDS011;52661;51.364;6.054;2023-09-18T09:33:35;3.13;;;0.65;;
65879;SDS011;52661;51.364;6.054;2023-09-18T09:36:04;2.20;;;0.73;;
65879;SDS011;52661;51.364;6.054;2023-09-18T09:38:30;3.50;;;0.65;;
65879;SDS011;52661;51.364;6.054;2023-09-18T09:40:58;2.38;;;0.80;;
65879;SDS011;52661;51.364;6.054;2023-09-18T09:43:27;3.58;;;0.60;;
65879;SDS011;52661;51.364;6.054;2023-09-18T09:45:56;1.83;;;0.50;;
65879;SDS011;52661;51.364;6.054;2023-09-18T09:48:23;2.25;;;0.47;;
65879;SDS011;52661;51.364;6.054;2023-09-18T09:50:50;5.75;;;0.60;;
65879;SDS011;52661;51.364;6.054;2023-09-18T09:53:17;4.40;;;0.70;;
65879;SDS011;52661;51.364;6.054;2023-09-18T09:55:43;4.20;;;0.85;;
65879;SDS011;52661;51.364;6.054;2023-09-18T09:58:09;4.97;;;1.73;;
65879;SDS011;52661;51.364;6.054;2023-09-18T10:00:57;4.53;;;0.88;;
65879;SDS011;52661;51.364;6.054;2023-09-18T10:03:24;4.18;;;0.90;;
65879;SDS011;52661;51.364;6.054;2023-09-18T10:05:51;2.05;;;0.70;;
65879;SDS011;52661;51.364;6.054;2023-09-18T10:10:49;4.57;;;0.95;;
65879;SDS011;52661;51.364;6.054;2023-09-18T10:13:30;3.50;;;0.40;;
65879;SDS011;52661;51.364;6.054;2023-09-18T10:16:04;5.55;;;1.00;;
65879;SDS011;52661;51.364;6.054;2023-09-18T10:21:26;3.75;;;0.60;;
65879;SDS011;52661;51.364;6.054;2023-09-18T10:24:33;2.22;;;0.80;;
65879;SDS011;52661;51.364;6.054;2023-09-18T10:26:56;3.00;;;0.82;;
65879;SDS011;52661;51.364;6.054;2023-09-18T10:29:23;2.25;;;0.70;;
65879;SDS011;52661;51.364;6.054;2023-09-18T10:31:50;3.47;;;0.68;;
65879;SDS011;52661;51.364;6.054;2023-09-18T10:34:17;2.80;;;0.90;;
65879;SDS011;52661;51.364;6.054;2023-09-18T10:36:44;5.97;;;1.38;;
65879;SDS011;52661;51.364;6.054;2023-09-18T10:39:12;2.70;;;0.57;;
65879;SDS011;52661;51.364;6.054;2023-09-18T10:41:38;4.10;;;0.82;;
65879;SDS011;52661;51.364;6.054;2023-09-18T10:44:04;1.60;;;0.60;;
65879;SDS011;52661;51.364;6.054;2023-09-18T10:46:31;2.15;;;0.55;;
65879;SDS011;52661;51.364;6.054;2023-09-18T10:48:58;2.40;;;0.50;;
65879;SDS011;52661;51.364;6.054;2023-09-18T10:51:24;4.05;;;0.85;;
65879;SDS011;52661;51.364;6.054;2023-09-18T10:53:50;3.08;;;0.65;;
65879;SDS011;52661;51.364;6.054;2023-09-18T10:56:17;3.05;;;0.90;;
65879;SDS011;52661;51.364;6.054;2023-09-18T10:58:44;2.80;;;0.70;;
65879;SDS011;52661;51.364;6.054;2023-09-18T11:01:13;3.42;;;1.20;;
65879;SDS011;52661;51.364;6.054;2023-09-18T11:03:39;1.50;;;0.68;;
65879;SDS011;52661;51.364;6.054;2023-09-18T11:06:07;3.60;;;1.10;;
65879;SDS011;52661;51.364;6.054;2023-09-18T11:08:45;6.10;;;0.68;;
65879;SDS011;52661;51.364;6.054;2023-09-18T11:11:12;6.47;;;1.50;;
65879;SDS011;52661;51.364;6.054;2023-09-18T11:16:32;3.03;;;0.88;;
65879;SDS011;52661;51.364;6.054;2023-09-18T11:21:29;1.97;;;1.10;;
65879;SDS011;52661;51.364;6.054;2023-09-18T11:26:29;4.43;;;0.70;;
65879;SDS011;52661;51.364;6.054;2023-09-18T11:28:58;2.97;;;0.50;;
65879;SDS011;52661;51.364;6.054;2023-09-18T11:34:12;2.08;;;0.50;;
65879;SDS011;52661;51.364;6.054;2023-09-18T11:36:41;1.73;;;1.13;;
65879;SDS011;52661;51.364;6.054;2023-09-18T11:39:06;3.03;;;0.90;;
65879;SDS011;52661;51.364;6.054;2023-09-18T11:41:34;2.25;;;1.00;;
65879;SDS011;52661;51.364;6.054;2023-09-18T11:46:35;2.25;;;0.60;;
65879;SDS011;52661;51.364;6.054;2023-09-18T11:49:05;3.33;;;0.70;;
65879;SDS011;52661;51.364;6.054;2023-09-18T11:53:57;2.75;;;0.60;;
65879;SDS011;52661;51.364;6.054;2023-09-18T11:56:23;2.08;;;0.63;;
65879;SDS011;52661;51.364;6.054;2023-09-18T11:58:49;3.67;;;1.45;;
65879;SDS011;52661;51.364;6.054;2023-09-18T12:01:17;4.18;;;1.42;;
65879;SDS011;52661;51.364;6.054;2023-09-18T12:03:43;2.05;;;0.63;;
65879;SDS011;52661;51.364;6.054;2023-09-18T12:06:10;3.85;;;1.00;;
65879;SDS011;52661;51.364;6.054;2023-09-18T12:08:38;6.30;;;0.80;;
65879;SDS011;52661;51.364;6.054;2023-09-18T12:11:04;2.35;;;0.82;;
65879;SDS011;52661;51.364;6.054;2023-09-18T12:13:31;4.65;;;0.95;;
65879;SDS011;52661;51.364;6.054;2023-09-18T12:15:57;3.00;;;1.60;;
65879;SDS011;52661;51.364;6.054;2023-09-18T12:18:25;3.13;;;0.60;;
65879;SDS011;52661;51.364;6.054;2023-09-18T12:20:53;2.25;;;0.63;;
65879;SDS011;52661;51.364;6.054;2023-09-18T12:23:20;2.20;;;0.60;;
65879;SDS011;52661;51.364;6.054;2023-09-18T12:25:47;3.75;;;0.57;;
65879;SDS011;52661;51.364;6.054;2023-09-18T12:28:14;3.97;;;0.80;;
65879;SDS011;52661;51.364;6.054;2023-09-18T12:30:40;3.15;;;0.85;;
65879;SDS011;52661;51.364;6.054;2023-09-18T12:33:06;3.33;;;0.85;;
65879;SDS011;52661;51.364;6.054;2023-09-18T12:35:31;4.03;;;1.10;;
65879;SDS011;52661;51.364;6.054;2023-09-18T12:37:58;3.47;;;0.70;;
65879;SDS011;52661;51.364;6.054;2023-09-18T12:40:25;3.60;;;1.08;;
65879;SDS011;52661;51.364;6.054;2023-09-18T12:42:58;4.10;;;0.85;;
65879;SDS011;52661;51.364;6.054;2023-09-18T12:45:25;5.97;;;0.90;;
65879;SDS011;52661;51.364;6.054;2023-09-18T12:47:51;5.13;;;0.93;;
65879;SDS011;52661;51.364;6.054;2023-09-18T12:50:21;3.97;;;0.90;;
65879;SDS011;52661;51.364;6.054;2023-09-18T12:52:46;3.65;;;0.90;;
65879;SDS011;52661;51.364;6.054;2023-09-18T12:55:24;2.97;;;0.70;;
65879;SDS011;52661;51.364;6.054;2023-09-18T12:57:51;3.03;;;1.13;;
65879;SDS011;52661;51.364;6.054;2023-09-18T13:00:18;1.90;;;0.40;;
65879;SDS011;52661;51.364;6.054;2023-09-18T13:02:47;3.20;;;0.70;;
65879;SDS011;52661;51.364;6.054;2023-09-18T13:05:13;1.65;;;0.65;;
65879;SDS011;52661;51.364;6.054;2023-09-18T13:07:44;3.25;;;0.80;;
65879;SDS011;52661;51.364;6.054;2023-09-18T13:10:10;3.60;;;1.38;;
65879;SDS011;52661;51.364;6.054;2023-09-18T13:12:42;3.30;;;0.52;;
65879;SDS011;52661;51.364;6.054;2023-09-18T13:15:11;4.32;;;0.85;;
65879;SDS011;52661;51.364;6.054;2023-09-18T13:17:46;3.20;;;0.95;;
65879;SDS011;52661;51.364;6.054;2023-09-18T13:20:14;3.47;;;0.90;;
65879;SDS011;52661;51.364;6.054;2023-09-18T13:22:41;4.88;;;0.93;;
65879;SDS011;52661;51.364;6.054;2023-09-18T13:25:08;3.42;;;0.82;;
65879;SDS011;52661;51.364;6.054;2023-09-18T13:27:36;2.55;;;0.60;;
65879;SDS011;52661;51.364;6.054;2023-09-18T13:30:02;2.75;;;0.77;;
65879;SDS011;52661;51.364;6.054;2023-09-18T13:32:35;2.60;;;1.58;;
65879;SDS011;52661;51.364;6.054;2023-09-18T13:35:02;2.67;;;0.63;;
65879;SDS011;52661;51.364;6.054;2023-09-18T13:37:31;2.72;;;0.60;;
65879;SDS011;52661;51.364;6.054;2023-09-18T13:39:57;3.00;;;0.63;;
65879;SDS011;52661;51.364;6.054;2023-09-18T13:42:22;1.70;;;0.50;;
65879;SDS011;52661;51.364;6.054;2023-09-18T13:44:47;2.30;;;0.63;;
65879;SDS011;52661;51.364;6.054;2023-09-18T13:47:14;2.78;;;0.77;;
65879;SDS011;52661;51.364;6.054;2023-09-18T13:49:40;3.90;;;0.40;;
65879;SDS011;52661;51.364;6.054;2023-09-18T13:52:05;2.60;;;0.50;;
65879;SDS011;52661;51.364;6.054;2023-09-18T13:54:30;1.52;;;0.40;;
65879;SDS011;52661;51.364;6.054;2023-09-18T13:56:56;5.18;;;0.60;;
65879;SDS011;52661;51.364;6.054;2023-09-18T13:59:21;1.65;;;0.43;;
65879;SDS011;52661;51.364;6.054;2023-09-18T14:01:47;2.47;;;0.60;;
65879;SDS011;52661;51.364;6.054;2023-09-18T14:04:12;3.60;;;0.60;;
65879;SDS011;52661;51.364;6.054;2023-09-18T14:06:37;2.77;;;0.83;;
65879;SDS011;52661;51.364;6.054;2023-09-18T14:09:03;2.47;;;0.60;;
65879;SDS011;52661;51.364;6.054;2023-09-18T14:11:30;2.83;;;0.68;;
65879;SDS011;52661;51.364;6.054;2023-09-18T14:13:56;2.30;;;0.50;;
65879;SDS011;52661;51.364;6.054;2023-09-18T14:16:21;2.30;;;0.60;;
65879;SDS011;52661;51.364;6.054;2023-09-18T14:18:47;5.75;;;0.47;;
65879;SDS011;52661;51.364;6.054;2023-09-18T14:21:12;4.35;;;0.55;;
65879;SDS011;52661;51.364;6.054;2023-09-18T14:23:39;2.97;;;0.60;;
65879;SDS011;52661;51.364;6.054;2023-09-18T14:26:04;1.85;;;0.40;;
65879;SDS011;52661;51.364;6.054;2023-09-18T14:28:30;2.15;;;0.57;;
65879;SDS011;52661;51.364;6.054;2023-09-18T14:30:57;2.08;;;0.90;;
65879;SDS011;52661;51.364;6.054;2023-09-18T14:33:23;1.58;;;0.43;;
65879;SDS011;52661;51.364;6.054;2023-09-18T14:35:48;1.25;;;0.50;;
65879;SDS011;52661;51.364;6.054;2023-09-18T14:38:14;6.82;;;1.20;;
65879;SDS011;52661;51.364;6.054;2023-09-18T14:40:43;1.92;;;0.52;;
65879;SDS011;52661;51.364;6.054;2023-09-18T14:43:08;2.50;;;0.32;;
65879;SDS011;52661;51.364;6.054;2023-09-18T14:45:33;3.15;;;0.73;;
65879;SDS011;52661;51.364;6.054;2023-09-18T14:48:00;1.40;;;0.60;;
65879;SDS011;52661;51.364;6.054;2023-09-18T14:50:25;4.28;;;0.60;;
65879;SDS011;52661;51.364;6.054;2023-09-18T14:52:50;2.43;;;0.57;;
65879;SDS011;52661;51.364;6.054;2023-09-18T14:55:16;2.22;;;0.43;;
65879;SDS011;52661;51.364;6.054;2023-09-18T14:57:41;2.65;;;0.52;;
65879;SDS011;52661;51.364;6.054;2023-09-18T15:00:07;2.10;;;0.65;;
65879;SDS011;52661;51.364;6.054;2023-09-18T15:02:32;2.85;;;0.60;;
65879;SDS011;52661;51.364;6.054;2023-09-18T15:04:59;2.90;;;0.80;;
65879;SDS011;52661;51.364;6.054;2023-09-18T15:07:25;1.52;;;0.30;;
65879;SDS011;52661;51.364;6.054;2023-09-18T15:09:51;2.55;;;0.30;;
65879;SDS011;52661;51.364;6.054;2023-09-18T15:12:17;1.45;;;0.28;;
65879;SDS011;52661;51.364;6.054;2023-09-18T15:14:42;5.50;;;0.70;;